createdAt,value
2023-03-12T00:02:21.429Z,8.85
2023-03-12T00:04:48.042Z,7.93
2023-03-12T00:07:14.619Z,7.82
2023-03-12T00:09:41.184Z,8.30
2023-03-12T00:12:08.465Z,7.93
2023-03-12T00:14:35.049Z,7.88
2023-03-12T00:17:01.593Z,7.95
2023-03-12T00:19:28.292Z,8.35
2023-03-12T00:21:54.910Z,8.25
2023-03-12T00:24:21.486Z,8.50
2023-03-12T00:26:48.094Z,10.02
2023-03-12T00:29:14.590Z,7.53
2023-03-12T00:31:41.431Z,7.72
2023-03-12T00:34:08.152Z,7.70
2023-03-12T00:36:34.731Z,7.85
2023-03-12T00:39:01.896Z,7.45
2023-03-12T00:41:30.642Z,7.40
2023-03-12T00:43:57.502Z,7.78
2023-03-12T00:46:24.121Z,7.03
2023-03-12T00:48:50.815Z,6.97
2023-03-12T00:51:17.579Z,7.47
2023-03-12T00:53:44.265Z,7.93
2023-03-12T00:56:12.084Z,6.93
2023-03-12T00:58:38.684Z,6.45
2023-03-12T01:01:05.537Z,6.68
2023-03-12T01:03:32.111Z,6.32
2023-03-12T01:05:58.879Z,6.40
2023-03-12T01:08:25.801Z,6.40
2023-03-12T01:10:52.788Z,6.95
2023-03-12T01:13:19.614Z,6.10
2023-03-12T01:15:46.280Z,6.20
2023-03-12T01:18:12.965Z,6.75
2023-03-12T01:20:40.893Z,7.53
2023-03-12T01:23:07.867Z,6.72
2023-03-12T01:25:35.201Z,6.70
2023-03-12T01:28:02.270Z,7.25
2023-03-12T01:30:29.374Z,7.00
2023-03-12T01:32:56.084Z,6.80
2023-03-12T01:35:22.789Z,6.90
2023-03-12T01:37:49.495Z,6.45
2023-03-12T01:40:18.392Z,7.75
2023-03-12T01:42:55.312Z,6.50
2023-03-12T01:46:03.152Z,6.50
2023-03-12T01:48:34.336Z,6.30
2023-03-12T01:51:01.829Z,6.20
2023-03-12T01:53:32.104Z,6.55
2023-03-12T01:55:59.571Z,6.60
2023-03-12T01:58:27.303Z,6.20
2023-03-12T02:00:54.693Z,6.45
2023-03-12T02:03:21.389Z,6.43
2023-03-12T02:05:55.422Z,6.57
2023-03-12T02:08:23.425Z,6.82
2023-03-12T02:10:50.156Z,6.53
2023-03-12T02:13:16.753Z,6.55
2023-03-12T02:15:43.428Z,6.50
2023-03-12T02:18:12.953Z,6.38
2023-03-12T02:20:51.178Z,6.00
2023-03-12T02:23:46.268Z,7.07
2023-03-12T02:26:13.991Z,6.20
2023-03-12T02:28:48.079Z,6.20
2023-03-12T02:31:18.675Z,7.03
2023-03-12T02:33:45.363Z,7.18
2023-03-12T02:36:13.624Z,6.35
2023-03-12T02:38:40.463Z,6.13
2023-03-12T02:41:13.920Z,6.38
2023-03-12T02:43:41.535Z,6.00
2023-03-12T02:46:08.845Z,6.47
2023-03-12T02:48:35.907Z,6.55
2023-03-12T02:51:03.352Z,6.50
2023-03-12T02:53:30.103Z,7.07
2023-03-12T02:55:56.923Z,6.20
2023-03-12T02:58:23.417Z,6.82
2023-03-12T03:00:51.927Z,6.72
2023-03-12T03:03:18.687Z,7.30
2023-03-12T03:05:45.748Z,6.50
2023-03-12T03:08:12.624Z,6.75
2023-03-12T03:10:39.167Z,6.28
2023-03-12T03:13:06.063Z,6.38
2023-03-12T03:15:32.693Z,6.82
2023-03-12T03:17:59.528Z,5.90
2023-03-12T03:20:26.844Z,6.60
2023-03-12T03:22:53.755Z,6.35
2023-03-12T03:25:23.203Z,6.90
2023-03-12T03:27:50.497Z,6.43
2023-03-12T03:30:17.437Z,6.40
2023-03-12T03:32:44.116Z,6.68
2023-03-12T03:35:11.263Z,6.55
2023-03-12T03:37:37.881Z,6.60
2023-03-12T03:40:05.636Z,6.47
2023-03-12T03:42:32.230Z,5.90
2023-03-12T03:44:59.243Z,6.82
2023-03-12T03:47:26.196Z,6.65
2023-03-12T03:49:52.714Z,6.82
2023-03-12T03:52:19.246Z,6.50
2023-03-12T03:54:45.951Z,6.22
2023-03-12T03:57:12.438Z,6.32
2023-03-12T03:59:38.996Z,6.70
2023-03-12T04:02:05.528Z,6.60
2023-03-12T04:04:32.103Z,6.88
2023-03-12T04:06:58.831Z,6.18
2023-03-12T04:09:25.536Z,6.22
2023-03-12T04:11:52.129Z,6.15
2023-03-12T04:14:18.757Z,6.35
2023-03-12T04:16:45.356Z,6.05
2023-03-12T04:19:12.029Z,7.03
2023-03-12T04:21:39.639Z,6.40
2023-03-12T04:24:07.954Z,6.38
2023-03-12T04:26:34.477Z,6.07
2023-03-12T04:29:01.226Z,6.22
2023-03-12T04:31:27.774Z,6.43
2023-03-12T04:33:54.323Z,6.68
2023-03-12T04:36:20.845Z,6.13
2023-03-12T04:38:47.445Z,6.18
2023-03-12T04:41:15.366Z,6.10
2023-03-12T04:43:42.014Z,6.57
2023-03-12T04:46:09.202Z,7.05
2023-03-12T04:48:36.070Z,6.15
2023-03-12T04:51:05.310Z,6.20
2023-03-12T04:53:31.943Z,6.70
2023-03-12T04:55:58.536Z,6.55
2023-03-12T04:58:25.187Z,6.20
2023-03-12T05:00:51.764Z,6.00
2023-03-12T05:03:18.516Z,5.93
2023-03-12T05:05:45.239Z,6.00
2023-03-12T05:08:11.784Z,6.53
2023-03-12T05:10:38.563Z,6.20
2023-03-12T05:13:05.266Z,5.93
2023-03-12T05:15:31.786Z,6.10
2023-03-12T05:17:58.498Z,6.70
2023-03-12T05:20:25.054Z,6.28
2023-03-12T05:22:52.136Z,6.57
2023-03-12T05:25:18.855Z,6.47
2023-03-12T05:27:45.457Z,6.25
2023-03-12T05:30:12.481Z,6.72
2023-03-12T05:32:39.033Z,6.55
2023-03-12T05:35:05.963Z,6.13
2023-03-12T05:37:32.966Z,6.60
2023-03-12T05:40:00.740Z,6.15
2023-03-12T05:42:27.248Z,6.15
2023-03-12T05:44:53.770Z,5.90
2023-03-12T05:47:20.532Z,5.93
2023-03-12T05:49:47.762Z,5.93
2023-03-12T05:52:14.512Z,5.85
2023-03-12T05:54:41.101Z,6.10
2023-03-12T05:57:07.679Z,6.45
2023-03-12T05:59:34.683Z,6.90
2023-03-12T06:02:01.248Z,7.03
2023-03-12T06:04:27.824Z,6.05
2023-03-12T06:06:54.367Z,6.38
2023-03-12T06:09:21.152Z,5.82
2023-03-12T06:11:47.699Z,5.88
2023-03-12T06:14:14.805Z,6.22
2023-03-12T06:16:41.662Z,6.38
2023-03-12T06:19:08.365Z,7.60
2023-03-12T06:21:36.129Z,6.78
2023-03-12T06:24:03.154Z,6.07
2023-03-12T06:26:29.832Z,6.20
2023-03-12T06:28:56.559Z,7.18
2023-03-12T06:31:24.108Z,6.45
2023-03-12T06:33:51.562Z,6.38
2023-03-12T06:36:18.086Z,6.05
2023-03-12T06:38:44.991Z,6.20
2023-03-12T06:41:14.660Z,6.68
2023-03-12T06:43:41.334Z,7.15
2023-03-12T06:46:09.934Z,6.45
2023-03-12T06:48:36.920Z,6.22
2023-03-12T06:51:04.501Z,6.65
2023-03-12T06:53:31.521Z,6.00
2023-03-12T06:55:58.079Z,6.40
2023-03-12T06:58:24.929Z,6.35
2023-03-12T07:00:52.020Z,6.40
2023-03-12T07:03:18.806Z,7.90
2023-03-12T07:05:49.121Z,6.00
2023-03-12T07:08:16.646Z,6.78
2023-03-12T07:10:43.137Z,6.38
2023-03-12T07:13:09.921Z,7.35
2023-03-12T07:15:36.596Z,6.72
2023-03-12T07:18:08.341Z,7.60
2023-03-12T07:20:39.690Z,6.10
2023-03-12T07:23:06.254Z,6.40
2023-03-12T07:25:36.537Z,6.03
2023-03-12T07:28:03.615Z,6.95
2023-03-12T07:30:33.366Z,6.80
2023-03-12T07:33:04.200Z,5.97
2023-03-12T07:35:32.865Z,6.45
2023-03-12T07:38:00.364Z,7.28
2023-03-12T07:40:27.034Z,6.10
2023-03-12T07:42:53.757Z,6.82
2023-03-12T07:45:20.924Z,6.40
2023-03-12T07:47:47.992Z,6.90
2023-03-12T07:50:15.471Z,6.30
2023-03-12T07:52:42.271Z,6.72
2023-03-12T07:55:10.143Z,7.03
2023-03-12T07:57:37.262Z,6.53
2023-03-12T08:00:07.422Z,6.93
2023-03-12T08:02:34.750Z,6.68
2023-03-12T08:05:01.365Z,6.85
2023-03-12T08:07:32.345Z,6.45
2023-03-12T08:09:59.739Z,6.60
2023-03-12T08:12:26.455Z,7.22
2023-03-12T08:14:53.048Z,7.57
2023-03-12T08:17:20.394Z,6.95
2023-03-12T08:19:46.983Z,6.47
2023-03-12T08:22:13.626Z,6.85
2023-03-12T08:24:40.229Z,8.48
2023-03-12T08:27:06.852Z,6.75
2023-03-12T08:29:33.525Z,6.55
2023-03-12T08:32:04.908Z,6.38
2023-03-12T08:34:32.297Z,6.82
2023-03-12T08:37:00.062Z,6.63
2023-03-12T08:39:26.670Z,7.43
2023-03-12T08:41:55.405Z,7.03
2023-03-12T08:44:23.080Z,7.63
2023-03-12T08:46:49.860Z,6.18
2023-03-12T08:49:16.533Z,6.63
2023-03-12T08:51:43.081Z,6.53
2023-03-12T08:54:09.716Z,8.32
2023-03-12T08:56:42.345Z,6.32
2023-03-12T08:59:10.511Z,7.45
2023-03-12T09:01:37.422Z,6.43
2023-03-12T09:04:04.456Z,7.70
2023-03-12T09:06:31.595Z,6.43
2023-03-12T09:08:58.192Z,6.43
2023-03-12T09:11:24.687Z,6.15
2023-03-12T09:14:18.693Z,6.32
2023-03-12T09:16:37.950Z,6.18
2023-03-12T09:19:04.640Z,6.68
2023-03-12T09:21:31.534Z,6.28
2023-03-12T09:23:58.281Z,6.70
2023-03-12T09:26:24.878Z,6.30
2023-03-12T09:28:51.608Z,8.52
2023-03-12T09:31:18.194Z,6.10
2023-03-12T09:33:45.375Z,7.55
2023-03-12T09:36:12.140Z,6.03
2023-03-12T09:38:38.955Z,6.13
2023-03-12T09:41:06.320Z,5.80
2023-03-12T09:43:41.887Z,5.00
2023-03-12T09:46:15.721Z,6.10
2023-03-12T09:48:42.454Z,6.15
2023-03-12T09:51:39.176Z,5.53
2023-03-12T09:54:07.953Z,5.53
2023-03-12T09:56:34.724Z,5.45
2023-03-12T09:59:01.611Z,5.20
2023-03-12T10:01:42.520Z,5.15
2023-03-12T10:04:30.429Z,5.05
2023-03-12T10:07:02.843Z,5.03
2023-03-12T10:09:51.132Z,5.38
2023-03-12T10:12:53.342Z,5.78
2023-03-12T10:15:22.872Z,5.60
2023-03-12T10:18:21.092Z,6.45
2023-03-12T10:21:15.208Z,5.28
2023-03-12T10:24:00.002Z,5.45
2023-03-12T10:26:33.889Z,6.05
2023-03-12T10:29:00.981Z,4.97
2023-03-12T10:31:45.428Z,6.45
2023-03-12T10:34:42.035Z,6.03
2023-03-12T10:37:25.188Z,7.07
2023-03-12T10:39:53.877Z,5.45
2023-03-12T10:42:23.363Z,6.20
2023-03-12T10:44:55.598Z,6.00
2023-03-12T10:47:27.842Z,5.90
2023-03-12T10:49:54.453Z,5.90
2023-03-12T10:52:23.015Z,5.45
2023-03-12T10:54:52.191Z,6.40
2023-03-12T10:57:20.933Z,5.60
2023-03-12T10:59:48.831Z,5.70
2023-03-12T11:02:45.696Z,5.93
2023-03-12T11:05:52.462Z,5.20
2023-03-12T11:08:27.112Z,5.07
2023-03-12T11:10:55.548Z,4.97
2023-03-12T11:13:25.037Z,5.57
2023-03-12T11:15:52.931Z,6.88
2023-03-12T11:18:29.837Z,5.40
2023-03-12T11:21:11.956Z,6.03
2023-03-12T11:23:48.335Z,6.10
2023-03-12T11:26:20.187Z,6.43
2023-03-12T11:28:49.489Z,5.93
2023-03-12T11:31:22.424Z,6.22
2023-03-12T11:33:49.659Z,6.85
2023-03-12T11:36:42.682Z,7.32
2023-03-12T11:39:26.689Z,7.63
2023-03-12T11:42:12.098Z,7.35
2023-03-12T11:44:44.842Z,8.10
2023-03-12T11:47:23.059Z,8.00
2023-03-12T11:49:58.616Z,8.57
2023-03-12T11:52:49.992Z,8.80
2023-03-12T11:55:35.856Z,10.05
2023-03-12T11:58:28.732Z,10.05
2023-03-12T12:01:06.863Z,10.63
2023-03-12T12:03:52.176Z,10.40
2023-03-12T12:06:43.404Z,10.98
2023-03-12T12:09:21.905Z,10.32
2023-03-12T12:12:13.058Z,9.95
2023-03-12T12:17:18.091Z,9.20
2023-03-12T12:20:18.723Z,9.60
2023-03-12T12:23:03.470Z,9.30
2023-03-12T12:26:00.992Z,11.00
2023-03-12T12:28:44.039Z,11.18
2023-03-12T12:31:16.758Z,11.07
2023-03-12T12:34:07.756Z,11.57
2023-03-12T12:36:35.605Z,11.70
2023-03-12T12:39:11.626Z,12.18
2023-03-12T12:41:42.984Z,11.90
2023-03-12T12:44:14.797Z,11.85
2023-03-12T12:46:48.774Z,12.32
2023-03-12T12:49:36.508Z,12.98
2023-03-12T12:52:06.410Z,12.15
2023-03-12T12:54:45.277Z,14.10
2023-03-12T12:57:16.266Z,12.95
2023-03-12T13:02:26.329Z,14.90
2023-03-12T13:04:56.686Z,16.15
2023-03-12T13:07:24.376Z,14.57
2023-03-12T13:09:56.865Z,13.48
2023-03-12T13:12:50.465Z,12.13
2023-03-12T13:15:29.386Z,12.88
2023-03-12T13:17:55.966Z,13.90
2023-03-12T13:20:31.810Z,13.40
2023-03-12T13:23:03.594Z,12.43
2023-03-12T13:25:30.223Z,13.85
2023-03-12T13:28:02.554Z,12.43
2023-03-12T13:30:35.448Z,13.73
2023-03-12T13:33:02.004Z,12.88
2023-03-12T13:35:39.573Z,13.00
2023-03-12T13:38:18.586Z,14.20
2023-03-12T13:40:51.283Z,13.15
2023-03-12T13:43:31.593Z,13.27
2023-03-12T13:46:21.616Z,14.68
2023-03-12T13:48:49.270Z,13.35
2023-03-12T13:51:21.194Z,13.52
2023-03-12T13:53:54.118Z,11.75
2023-03-12T13:56:27.291Z,13.25
2023-03-12T13:59:00.437Z,12.52
2023-03-12T14:01:50.996Z,11.82
2023-03-12T14:04:21.214Z,11.90
2023-03-12T14:07:12.087Z,12.45
2023-03-12T14:10:00.687Z,11.93
2023-03-12T14:12:33.350Z,12.27
2023-03-12T14:15:21.047Z,11.20
2023-03-12T14:17:56.200Z,11.20
2023-03-12T14:20:23.371Z,11.05
2023-03-12T14:22:57.693Z,10.68
2023-03-12T14:25:35.824Z,10.35
2023-03-12T14:28:04.642Z,11.07
2023-03-12T14:30:52.937Z,10.75
2023-03-12T14:33:21.154Z,9.48
2023-03-12T14:35:54.058Z,9.82
2023-03-12T14:38:26.392Z,11.00
2023-03-12T14:41:13.430Z,9.77
2023-03-12T14:43:42.361Z,9.07
2023-03-12T14:46:23.983Z,10.05
2023-03-12T14:48:52.522Z,10.07
2023-03-12T14:51:24.418Z,9.00
2023-03-12T14:53:51.773Z,12.27
2023-03-12T14:56:30.919Z,9.40
2023-03-12T14:58:59.476Z,9.63
2023-03-12T15:01:33.952Z,10.98
2023-03-12T15:04:02.932Z,9.10
2023-03-12T15:06:34.028Z,9.10
2023-03-12T15:09:04.286Z,8.85
2023-03-12T15:11:32.661Z,10.27
2023-03-12T15:14:05.737Z,8.43
2023-03-12T15:16:33.049Z,10.38
2023-03-12T15:19:00.120Z,8.45
2023-03-12T15:21:26.961Z,8.52
2023-03-12T15:23:53.575Z,8.85
2023-03-12T15:26:20.023Z,8.10
2023-03-12T15:29:00.341Z,8.98
2023-03-12T15:31:27.264Z,7.93
2023-03-12T15:34:05.372Z,9.55
2023-03-12T15:36:33.893Z,8.73
2023-03-12T15:39:14.575Z,7.60
2023-03-12T15:41:49.247Z,8.30
2023-03-12T15:44:19.110Z,8.23
2023-03-12T15:46:48.675Z,9.02
2023-03-12T15:49:23.008Z,8.07
2023-03-12T15:52:01.173Z,7.20
2023-03-12T15:54:29.342Z,7.28
2023-03-12T15:57:12.282Z,7.85
2023-03-12T15:59:38.910Z,8.35
2023-03-12T16:02:11.347Z,9.77
2023-03-12T16:04:37.859Z,7.82
2023-03-12T16:07:10.776Z,8.63
2023-03-12T16:09:37.319Z,8.27
2023-03-12T16:12:04.292Z,9.30
2023-03-12T16:14:34.552Z,6.82
2023-03-12T16:17:01.088Z,8.15
2023-03-12T16:19:29.965Z,9.30
2023-03-12T16:21:56.667Z,8.88
2023-03-12T16:24:23.233Z,9.45
2023-03-12T16:26:53.789Z,9.70
2023-03-12T16:29:21.330Z,8.45
2023-03-12T16:31:52.049Z,9.30
2023-03-12T16:34:18.708Z,9.65
2023-03-12T16:36:45.176Z,8.43
2023-03-12T16:39:11.779Z,8.43
2023-03-12T16:41:38.561Z,7.68
2023-03-12T16:44:07.493Z,10.50
2023-03-12T16:46:34.962Z,8.65
2023-03-12T16:49:01.808Z,7.78
2023-03-12T16:51:30.902Z,8.48
2023-03-12T16:54:09.640Z,8.13
2023-03-12T16:56:38.080Z,8.20
2023-03-12T16:59:07.559Z,7.97
2023-03-12T17:01:35.223Z,9.02
2023-03-12T17:04:03.449Z,10.43
2023-03-12T17:06:30.105Z,7.95
2023-03-12T17:08:56.738Z,8.25
2023-03-12T17:11:26.921Z,8.85
2023-03-12T17:14:05.284Z,8.13
2023-03-12T17:16:31.965Z,8.48
2023-03-12T17:18:58.532Z,8.60
2023-03-12T17:21:25.062Z,9.15
2023-03-12T17:23:51.853Z,7.95
2023-03-12T17:26:18.982Z,8.05
2023-03-12T17:28:45.564Z,7.57
2023-03-12T17:31:12.167Z,7.70
2023-03-12T17:33:39.122Z,7.97
2023-03-12T17:36:08.026Z,8.52
2023-03-12T17:38:35.060Z,9.23
2023-03-12T17:41:02.411Z,8.45
2023-03-12T17:43:29.118Z,7.70
2023-03-12T17:45:55.645Z,8.85
2023-03-12T17:48:23.511Z,8.82
2023-03-12T17:50:50.322Z,7.22
2023-03-12T17:53:16.858Z,8.82
2023-03-12T17:55:43.542Z,8.85
2023-03-12T17:58:10.010Z,9.25
2023-03-12T18:00:36.642Z,8.05
2023-03-12T18:03:03.664Z,8.82
2023-03-12T18:05:30.488Z,7.60
2023-03-12T18:07:57.035Z,8.18
2023-03-12T18:10:23.667Z,8.90
2023-03-12T18:12:50.097Z,9.38
2023-03-12T18:15:16.912Z,9.63
2023-03-12T18:17:50.091Z,7.70
2023-03-12T18:20:25.890Z,8.57
2023-03-12T18:22:59.005Z,8.57
2023-03-12T18:25:25.538Z,8.38
2023-03-12T18:27:53.168Z,8.55
2023-03-12T18:30:21.285Z,8.77
2023-03-12T18:32:48.023Z,9.38
2023-03-12T18:35:14.697Z,9.18
2023-03-12T18:37:41.777Z,9.00
2023-03-12T18:40:10.029Z,8.45
2023-03-12T18:42:36.654Z,8.27
2023-03-12T18:45:03.372Z,7.82
2023-03-12T18:47:31.367Z,8.60
2023-03-12T18:49:58.274Z,8.32
2023-03-12T18:52:24.837Z,7.53
2023-03-12T18:54:51.470Z,8.50
2023-03-12T18:57:18.019Z,7.97
2023-03-12T18:59:48.802Z,8.52
2023-03-12T19:02:15.262Z,8.55
2023-03-12T19:04:41.801Z,8.35
2023-03-12T19:07:10.508Z,8.68
2023-03-12T19:09:38.266Z,7.85
2023-03-12T19:12:05.012Z,9.10
2023-03-12T19:14:31.632Z,8.48
2023-03-12T19:16:58.235Z,8.70
2023-03-12T19:19:24.918Z,7.88
2023-03-12T19:21:51.598Z,8.20
2023-03-12T19:24:18.242Z,8.90
2023-03-12T19:26:44.816Z,9.65
2023-03-12T19:29:11.367Z,8.70
2023-03-12T19:31:38.044Z,6.60
2023-03-12T19:34:04.685Z,8.48
2023-03-12T19:36:37.514Z,7.40
2023-03-12T19:39:11.952Z,8.10
2023-03-12T19:41:45.511Z,8.48
2023-03-12T19:44:12.091Z,8.00
2023-03-12T19:46:41.720Z,8.35
2023-03-12T19:49:08.344Z,6.60
2023-03-12T19:51:36.822Z,7.57
2023-03-12T19:54:03.645Z,7.90
2023-03-12T19:56:30.465Z,7.75
2023-03-12T19:58:57.067Z,7.35
2023-03-12T20:01:25.417Z,8.13
2023-03-12T20:03:51.931Z,8.60
2023-03-12T20:06:21.542Z,9.27
2023-03-12T20:08:49.157Z,7.45
2023-03-12T20:11:15.766Z,8.13
2023-03-12T20:13:42.334Z,7.47
2023-03-12T20:16:09.150Z,8.30
2023-03-12T20:18:37.013Z,7.32
2023-03-12T20:21:03.770Z,7.07
2023-03-12T20:23:31.467Z,7.97
2023-03-12T20:26:00.142Z,8.00
2023-03-12T20:28:27.037Z,8.30
2023-03-12T20:30:54.183Z,6.95
2023-03-12T20:33:20.914Z,7.65
2023-03-12T20:35:50.162Z,7.55
2023-03-12T20:38:16.979Z,8.48
2023-03-12T20:40:46.755Z,7.28
2023-03-12T20:43:13.500Z,9.05
2023-03-12T20:45:40.090Z,8.25
2023-03-12T20:48:08.768Z,8.20
2023-03-12T20:50:39.742Z,8.45
2023-03-12T20:55:39.771Z,6.93
2023-03-12T20:58:07.082Z,7.28
2023-03-12T21:00:33.794Z,7.95
2023-03-12T21:03:00.340Z,8.35
2023-03-12T21:05:29.518Z,7.85
2023-03-12T21:07:58.485Z,8.25
2023-03-12T21:10:27.595Z,7.53
2023-03-12T21:12:54.474Z,7.97
2023-03-12T21:15:21.163Z,8.20
2023-03-12T21:17:50.658Z,8.00
2023-03-12T21:20:18.876Z,8.45
2023-03-12T21:22:51.005Z,8.18
2023-03-12T21:25:18.060Z,7.00
2023-03-12T21:27:51.073Z,7.80
2023-03-12T21:30:18.570Z,7.85
2023-03-12T21:32:45.185Z,8.90
2023-03-12T21:35:11.797Z,8.70
2023-03-12T21:37:38.646Z,9.05
2023-03-12T21:40:05.611Z,9.85
2023-03-12T21:42:33.199Z,7.43
2023-03-12T21:44:59.738Z,7.50
2023-03-12T21:47:26.595Z,7.72
2023-03-12T21:49:53.249Z,7.43
2023-03-12T21:52:19.883Z,7.10
2023-03-12T21:54:46.449Z,7.10
2023-03-12T21:57:13.079Z,8.57
2023-03-12T21:59:39.669Z,8.18
2023-03-12T22:02:08.598Z,7.57
2023-03-12T22:04:35.244Z,8.07
2023-03-12T22:07:01.772Z,7.43
2023-03-12T22:09:28.437Z,8.38
2023-03-12T22:11:54.979Z,7.45
2023-03-12T22:14:23.193Z,9.60
2023-03-12T22:16:50.080Z,7.38
2023-03-12T22:19:16.610Z,8.05
2023-03-12T22:21:43.165Z,7.78
2023-03-12T22:24:10.380Z,6.75
2023-03-12T22:26:36.938Z,7.45
2023-03-12T22:29:04.132Z,8.50
2023-03-12T22:31:30.973Z,7.57
2023-03-12T22:33:57.887Z,7.60
2023-03-12T22:36:24.500Z,8.85
2023-03-12T22:38:51.197Z,7.10
2023-03-12T22:41:26.321Z,7.53
2023-03-12T22:43:55.812Z,10.50
2023-03-12T22:46:24.145Z,7.28
2023-03-12T22:48:59.183Z,8.63
2023-03-12T22:51:26.605Z,7.68
2023-03-12T22:53:55.766Z,8.10
2023-03-12T22:56:23.063Z,9.45
2023-03-12T22:58:49.851Z,7.60
2023-03-12T23:01:20.463Z,8.00
2023-03-12T23:03:47.595Z,7.60
2023-03-12T23:06:15.346Z,8.35
2023-03-12T23:08:42.478Z,7.88
2023-03-12T23:11:10.270Z,7.88
2023-03-12T23:13:38.622Z,7.97
2023-03-12T23:16:08.100Z,7.57
2023-03-12T23:18:35.120Z,7.70
2023-03-12T23:21:06.860Z,8.05
2023-03-12T23:23:36.429Z,10.00
2023-03-12T23:26:05.502Z,8.13
2023-03-12T23:28:32.579Z,8.77
2023-03-12T23:31:04.992Z,8.48
2023-03-12T23:33:41.622Z,8.13
2023-03-12T23:36:12.209Z,7.40
2023-03-12T23:38:39.048Z,7.97
2023-03-12T23:41:17.089Z,7.80
2023-03-12T23:43:44.279Z,8.02
2023-03-12T23:46:13.316Z,8.63
2023-03-12T23:48:40.771Z,7.10
2023-03-12T23:51:10.322Z,7.88
2023-03-12T23:53:37.886Z,7.88
2023-03-12T23:56:07.124Z,7.22
2023-03-12T23:58:34.098Z,7.95
